sensor_id;sensor_type;location;lat;lon;timestamp;temperature;humidity
14095;DHT22;18096;48.142;16.290;2023-05-07T00:01:39;14.80;99.90
14095;DHT22;18096;48.142;16.290;2023-05-07T00:04:05;14.80;99.90
14095;DHT22;18096;48.142;16.290;2023-05-07T00:06:32;14.70;99.90
14095;DHT22;18096;48.142;16.290;2023-05-07T00:08:58;14.70;99.90
14095;DHT22;18096;48.142;16.290;2023-05-07T00:11:24;14.60;99.90
14095;DHT22;18096;48.142;16.290;2023-05-07T00:13:51;14.60;99.90
14095;DHT22;18096;48.142;16.290;2023-05-07T00:16:16;14.60;99.90
14095;DHT22;18096;48.142;16.290;2023-05-07T00:18:42;14.50;99.90
14095;DHT22;18096;48.142;16.290;2023-05-07T00:21:07;14.50;99.90
14095;DHT22;18096;48.142;16.290;2023-05-07T00:23:33;14.60;99.90
14095;DHT22;18096;48.142;16.290;2023-05-07T00:25:59;14.50;99.90
14095;DHT22;18096;48.142;16.290;2023-05-07T00:28:24;14.50;99.90
14095;DHT22;18096;48.142;16.290;2023-05-07T00:30:50;14.50;99.90
14095;DHT22;18096;48.142;16.290;2023-05-07T00:33:15;14.50;99.90
14095;DHT22;18096;48.142;16.290;2023-05-07T00:35:42;14.50;99.90
14095;DHT22;18096;48.142;16.290;2023-05-07T00:38:08;14.40;99.90
14095;DHT22;18096;48.142;16.290;2023-05-07T00:40:33;14.40;99.90
14095;DHT22;18096;48.142;16.290;2023-05-07T00:42:59;14.40;99.90
14095;DHT22;18096;48.142;16.290;2023-05-07T00:45:28;14.40;99.90
14095;DHT22;18096;48.142;16.290;2023-05-07T00:47:59;14.40;99.90
14095;DHT22;18096;48.142;16.290;2023-05-07T00:50:26;14.30;99.90
14095;DHT22;18096;48.142;16.290;2023-05-07T00:52:53;14.40;99.90
14095;DHT22;18096;48.142;16.290;2023-05-07T00:55:20;14.40;99.90
14095;DHT22;18096;48.142;16.290;2023-05-07T00:57:46;14.40;99.90
14095;DHT22;18096;48.142;16.290;2023-05-07T01:00:12;14.30;99.90
14095;DHT22;18096;48.142;16.290;2023-05-07T01:02:41;14.30;99.90
14095;DHT22;18096;48.142;16.290;2023-05-07T01:05:10;14.30;99.90
14095;DHT22;18096;48.142;16.290;2023-05-07T01:07:37;14.30;99.90
14095;DHT22;18096;48.142;16.290;2023-05-07T01:10:04;14.30;99.90
14095;DHT22;18096;48.142;16.290;2023-05-07T01:12:31;14.30;99.90
14095;DHT22;18096;48.142;16.290;2023-05-07T01:14:57;14.30;99.90
14095;DHT22;18096;48.142;16.290;2023-05-07T01:17:23;14.30;99.90
14095;DHT22;18096;48.142;16.290;2023-05-07T01:19:49;14.30;99.90
14095;DHT22;18096;48.142;16.290;2023-05-07T01:22:16;14.30;99.90
14095;DHT22;18096;48.142;16.290;2023-05-07T01:24:45;14.40;99.90
14095;DHT22;18096;48.142;16.290;2023-05-07T01:27:11;14.30;99.90
14095;DHT22;18096;48.142;16.290;2023-05-07T01:29:36;14.30;99.90
14095;DHT22;18096;48.142;16.290;2023-05-07T01:32:02;14.30;99.90
14095;DHT22;18096;48.142;16.290;2023-05-07T01:34:32;14.30;99.90
14095;DHT22;18096;48.142;16.290;2023-05-07T01:36:58;14.30;99.90
14095;DHT22;18096;48.142;16.290;2023-05-07T01:39:25;14.40;99.90
14095;DHT22;18096;48.142;16.290;2023-05-07T01:41:56;14.40;99.90
14095;DHT22;18096;48.142;16.290;2023-05-07T01:44:22;14.50;99.90
14095;DHT22;18096;48.142;16.290;2023-05-07T01:46:48;14.50;99.90
14095;DHT22;18096;48.142;16.290;2023-05-07T01:49:15;14.50;99.90
14095;DHT22;18096;48.142;16.290;2023-05-07T01:51:41;14.50;99.90
14095;DHT22;18096;48.142;16.290;2023-05-07T01:54:07;14.50;99.90
14095;DHT22;18096;48.142;16.290;2023-05-07T01:56:33;14.50;99.90
14095;DHT22;18096;48.142;16.290;2023-05-07T01:58:59;14.50;99.90
14095;DHT22;18096;48.142;16.290;2023-05-07T02:01:25;14.50;99.90
14095;DHT22;18096;48.142;16.290;2023-05-07T02:03:50;14.50;99.90
14095;DHT22;18096;48.142;16.290;2023-05-07T02:06:16;14.50;99.90
14095;DHT22;18096;48.142;16.290;2023-05-07T02:08:41;14.50;99.90
14095;DHT22;18096;48.142;16.290;2023-05-07T02:11:07;14.50;99.90
14095;DHT22;18096;48.142;16.290;2023-05-07T02:13:34;14.50;99.90
14095;DHT22;18096;48.142;16.290;2023-05-07T02:16:00;14.40;99.90
14095;DHT22;18096;48.142;16.290;2023-05-07T02:18:26;14.40;99.90
14095;DHT22;18096;48.142;16.290;2023-05-07T02:20:52;14.40;99.90
14095;DHT22;18096;48.142;16.290;2023-05-07T02:23:17;14.40;99.90
14095;DHT22;18096;48.142;16.290;2023-05-07T02:25:43;14.40;99.90
14095;DHT22;18096;48.142;16.290;2023-05-07T02:28:08;14.50;99.90
14095;DHT22;18096;48.142;16.290;2023-05-07T02:30:36;14.40;99.90
14095;DHT22;18096;48.142;16.290;2023-05-07T02:33:02;14.40;99.90
14095;DHT22;18096;48.142;16.290;2023-05-07T02:35:28;14.40;99.90
14095;DHT22;18096;48.142;16.290;2023-05-07T02:37:53;14.40;99.90
14095;DHT22;18096;48.142;16.290;2023-05-07T02:40:19;14.40;99.90
14095;DHT22;18096;48.142;16.290;2023-05-07T02:42:45;14.40;99.90
14095;DHT22;18096;48.142;16.290;2023-05-07T02:45:10;14.50;99.90
14095;DHT22;18096;48.142;16.290;2023-05-07T02:47:36;14.50;99.90
14095;DHT22;18096;48.142;16.290;2023-05-07T02:50:02;14.50;99.90
14095;DHT22;18096;48.142;16.290;2023-05-07T02:52:28;14.50;99.90
14095;DHT22;18096;48.142;16.290;2023-05-07T02:54:53;14.50;99.90
14095;DHT22;18096;48.142;16.290;2023-05-07T02:57:19;14.40;99.90
14095;DHT22;18096;48.142;16.290;2023-05-07T02:59:45;14.40;99.90
14095;DHT22;18096;48.142;16.290;2023-05-07T03:02:10;14.50;99.90
14095;DHT22;18096;48.142;16.290;2023-05-07T03:04:37;14.40;99.90
14095;DHT22;18096;48.142;16.290;2023-05-07T03:07:03;14.40;99.90
14095;DHT22;18096;48.142;16.290;2023-05-07T03:09:29;14.40;99.90
14095;DHT22;18096;48.142;16.290;2023-05-07T03:11:54;14.40;99.90
14095;DHT22;18096;48.142;16.290;2023-05-07T03:14:20;14.40;99.90
14095;DHT22;18096;48.142;16.290;2023-05-07T03:16:45;14.40;99.90
14095;DHT22;18096;48.142;16.290;2023-05-07T03:19:11;14.40;99.90
14095;DHT22;18096;48.142;16.290;2023-05-07T03:21:37;14.40;99.90
14095;DHT22;18096;48.142;16.290;2023-05-07T03:24:02;14.30;99.90
14095;DHT22;18096;48.142;16.290;2023-05-07T03:26:28;14.30;99.90
14095;DHT22;18096;48.142;16.290;2023-05-07T03:28:54;14.30;99.90
14095;DHT22;18096;48.142;16.290;2023-05-07T03:31:20;14.30;99.90
14095;DHT22;18096;48.142;16.290;2023-05-07T03:33:56;14.30;99.90
14095;DHT22;18096;48.142;16.290;2023-05-07T03:36:23;14.30;99.90
14095;DHT22;18096;48.142;16.290;2023-05-07T03:38:49;14.30;99.90
14095;DHT22;18096;48.142;16.290;2023-05-07T03:41:15;14.30;99.90
14095;DHT22;18096;48.142;16.290;2023-05-07T03:43:41;14.20;99.90
14095;DHT22;18096;48.142;16.290;2023-05-07T03:46:07;14.20;99.90
14095;DHT22;18096;48.142;16.290;2023-05-07T03:48:32;14.20;99.90
14095;DHT22;18096;48.142;16.290;2023-05-07T03:50:58;14.20;99.90
14095;DHT22;18096;48.142;16.290;2023-05-07T03:53:24;14.10;99.90
14095;DHT22;18096;48.142;16.290;2023-05-07T03:55:50;14.10;99.90
14095;DHT22;18096;48.142;16.290;2023-05-07T03:58:16;14.10;99.90
14095;DHT22;18096;48.142;16.290;2023-05-07T04:00:41;14.10;99.90
14095;DHT22;18096;48.142;16.290;2023-05-07T04:03:08;14.10;99.90
14095;DHT22;18096;48.142;16.290;2023-05-07T04:05:33;14.10;99.90
14095;DHT22;18096;48.142;16.290;2023-05-07T04:08:00;14.10;99.90
14095;DHT22;18096;48.142;16.290;2023-05-07T04:10:26;14.10;99.90
14095;DHT22;18096;48.142;16.290;2023-05-07T04:12:53;14.10;99.90
14095;DHT22;18096;48.142;16.290;2023-05-07T04:15:19;14.10;99.90
14095;DHT22;18096;48.142;16.290;2023-05-07T04:17:45;14.10;99.90
14095;DHT22;18096;48.142;16.290;2023-05-07T04:20:13;14.20;99.90
14095;DHT22;18096;48.142;16.290;2023-05-07T04:22:39;14.20;99.90
14095;DHT22;18096;48.142;16.290;2023-05-07T04:25:05;14.30;99.90
14095;DHT22;18096;48.142;16.290;2023-05-07T04:27:31;14.30;99.90
14095;DHT22;18096;48.142;16.290;2023-05-07T04:29:57;14.30;99.90
14095;DHT22;18096;48.142;16.290;2023-05-07T04:32:23;14.40;99.90
14095;DHT22;18096;48.142;16.290;2023-05-07T04:34:50;14.40;99.90
14095;DHT22;18096;48.142;16.290;2023-05-07T04:37:16;14.50;99.90
14095;DHT22;18096;48.142;16.290;2023-05-07T04:39:41;14.50;99.90
14095;DHT22;18096;48.142;16.290;2023-05-07T04:42:07;14.50;99.90
14095;DHT22;18096;48.142;16.290;2023-05-07T04:44:34;14.50;99.90
14095;DHT22;18096;48.142;16.290;2023-05-07T04:47:02;14.50;99.90
14095;DHT22;18096;48.142;16.290;2023-05-07T04:49:27;14.50;99.90
14095;DHT22;18096;48.142;16.290;2023-05-07T04:51:53;14.60;99.90
14095;DHT22;18096;48.142;16.290;2023-05-07T04:54:19;14.60;99.90
14095;DHT22;18096;48.142;16.290;2023-05-07T04:56:44;14.60;99.90
14095;DHT22;18096;48.142;16.290;2023-05-07T04:59:10;14.60;99.90
14095;DHT22;18096;48.142;16.290;2023-05-07T05:01:37;14.60;99.90
14095;DHT22;18096;48.142;16.290;2023-05-07T05:04:02;14.70;99.90
14095;DHT22;18096;48.142;16.290;2023-05-07T05:06:28;14.70;99.90
14095;DHT22;18096;48.142;16.290;2023-05-07T05:08:54;14.80;99.90
14095;DHT22;18096;48.142;16.290;2023-05-07T05:11:20;14.80;99.90
14095;DHT22;18096;48.142;16.290;2023-05-07T05:13:46;14.90;99.90
14095;DHT22;18096;48.142;16.290;2023-05-07T05:16:14;15.00;99.90
14095;DHT22;18096;48.142;16.290;2023-05-07T05:18:40;15.00;99.90
14095;DHT22;18096;48.142;16.290;2023-05-07T05:21:06;15.10;99.90
14095;DHT22;18096;48.142;16.290;2023-05-07T05:23:31;15.10;99.90
14095;DHT22;18096;48.142;16.290;2023-05-07T05:25:57;15.20;99.90
14095;DHT22;18096;48.142;16.290;2023-05-07T05:28:23;15.20;99.90
14095;DHT22;18096;48.142;16.290;2023-05-07T05:30:49;15.20;99.90
14095;DHT22;18096;48.142;16.290;2023-05-07T05:33:15;15.20;99.90
14095;DHT22;18096;48.142;16.290;2023-05-07T05:35:41;15.20;99.90
14095;DHT22;18096;48.142;16.290;2023-05-07T05:38:07;15.20;99.90
14095;DHT22;18096;48.142;16.290;2023-05-07T05:40:33;15.30;99.90
14095;DHT22;18096;48.142;16.290;2023-05-07T05:42:59;15.20;99.90
14095;DHT22;18096;48.142;16.290;2023-05-07T05:45:24;15.20;99.90
14095;DHT22;18096;48.142;16.290;2023-05-07T05:47:50;15.20;99.90
14095;DHT22;18096;48.142;16.290;2023-05-07T05:50:16;15.20;99.90
14095;DHT22;18096;48.142;16.290;2023-05-07T05:52:41;15.30;99.90
14095;DHT22;18096;48.142;16.290;2023-05-07T05:55:08;15.30;99.90
14095;DHT22;18096;48.142;16.290;2023-05-07T05:57:33;15.30;99.90
14095;DHT22;18096;48.142;16.290;2023-05-07T06:00:00;15.30;99.90
14095;DHT22;18096;48.142;16.290;2023-05-07T06:02:26;15.30;99.90
14095;DHT22;18096;48.142;16.290;2023-05-07T06:04:52;15.30;99.90
14095;DHT22;18096;48.142;16.290;2023-05-07T06:07:17;15.20;99.90
14095;DHT22;18096;48.142;16.290;2023-05-07T06:09:43;15.20;99.90
14095;DHT22;18096;48.142;16.290;2023-05-07T06:12:09;15.20;99.90
14095;DHT22;18096;48.142;16.290;2023-05-07T06:14:35;15.20;99.90
14095;DHT22;18096;48.142;16.290;2023-05-07T06:17:00;15.20;99.90
14095;DHT22;18096;48.142;16.290;2023-05-07T06:19:26;15.20;99.90
14095;DHT22;18096;48.142;16.290;2023-05-07T06:21:53;15.20;99.90
14095;DHT22;18096;48.142;16.290;2023-05-07T06:24:19;15.20;99.90
14095;DHT22;18096;48.142;16.290;2023-05-07T06:26:45;15.20;99.90
14095;DHT22;18096;48.142;16.290;2023-05-07T06:29:10;15.20;99.90
14095;DHT22;18096;48.142;16.290;2023-05-07T06:31:36;15.10;99.90
14095;DHT22;18096;48.142;16.290;2023-05-07T06:34:01;15.10;99.90
14095;DHT22;18096;48.142;16.290;2023-05-07T06:36:28;15.10;99.90
14095;DHT22;18096;48.142;16.290;2023-05-07T06:38:53;15.10;99.90
14095;DHT22;18096;48.142;16.290;2023-05-07T06:41:19;15.20;99.90
14095;DHT22;18096;48.142;16.290;2023-05-07T06:43:45;15.20;99.90
14095;DHT22;18096;48.142;16.290;2023-05-07T06:46:11;15.20;99.90
14095;DHT22;18096;48.142;16.290;2023-05-07T06:48:37;15.20;99.90
14095;DHT22;18096;48.142;16.290;2023-05-07T06:51:02;15.20;99.90
14095;DHT22;18096;48.142;16.290;2023-05-07T06:53:28;15.20;99.90
14095;DHT22;18096;48.142;16.290;2023-05-07T06:55:56;15.30;99.90
14095;DHT22;18096;48.142;16.290;2023-05-07T06:58:21;15.30;99.90
14095;DHT22;18096;48.142;16.290;2023-05-07T07:00:47;15.40;99.90
14095;DHT22;18096;48.142;16.290;2023-05-07T07:03:13;15.40;99.90
14095;DHT22;18096;48.142;16.290;2023-05-07T07:05:41;15.50;99.90
14095;DHT22;18096;48.142;16.290;2023-05-07T07:08:07;15.50;99.90
14095;DHT22;18096;48.142;16.290;2023-05-07T07:10:32;15.50;99.90
14095;DHT22;18096;48.142;16.290;2023-05-07T07:12:58;15.60;99.90
14095;DHT22;18096;48.142;16.290;2023-05-07T07:15:24;15.60;99.90
14095;DHT22;18096;48.142;16.290;2023-05-07T07:17:50;15.70;99.90
14095;DHT22;18096;48.142;16.290;2023-05-07T07:20:16;15.70;99.90
14095;DHT22;18096;48.142;16.290;2023-05-07T07:22:42;15.70;99.90
14095;DHT22;18096;48.142;16.290;2023-05-07T07:25:08;15.70;99.90
14095;DHT22;18096;48.142;16.290;2023-05-07T07:27:34;15.80;99.90
14095;DHT22;18096;48.142;16.290;2023-05-07T07:29:59;15.80;99.90
14095;DHT22;18096;48.142;16.290;2023-05-07T07:32:25;15.80;99.90
14095;DHT22;18096;48.142;16.290;2023-05-07T07:34:51;15.80;99.90
14095;DHT22;18096;48.142;16.290;2023-05-07T07:37:17;15.90;99.90
14095;DHT22;18096;48.142;16.290;2023-05-07T07:39:42;15.90;99.90
14095;DHT22;18096;48.142;16.290;2023-05-07T07:42:08;15.90;99.90
14095;DHT22;18096;48.142;16.290;2023-05-07T07:44:34;16.00;99.90
14095;DHT22;18096;48.142;16.290;2023-05-07T07:46:59;16.00;99.90
14095;DHT22;18096;48.142;16.290;2023-05-07T07:49:25;15.90;99.90
14095;DHT22;18096;48.142;16.290;2023-05-07T07:51:50;15.90;99.90
14095;DHT22;18096;48.142;16.290;2023-05-07T07:54:16;15.90;99.90
14095;DHT22;18096;48.142;16.290;2023-05-07T07:56:42;15.80;99.90
14095;DHT22;18096;48.142;16.290;2023-05-07T07:59:07;15.90;99.90
14095;DHT22;18096;48.142;16.290;2023-05-07T08:01:33;15.80;99.90
14095;DHT22;18096;48.142;16.290;2023-05-07T08:03:59;15.90;99.90
14095;DHT22;18096;48.142;16.290;2023-05-07T08:06:25;15.90;99.90
14095;DHT22;18096;48.142;16.290;2023-05-07T08:08:53;15.90;99.90
14095;DHT22;18096;48.142;16.290;2023-05-07T08:11:19;16.00;99.90
14095;DHT22;18096;48.142;16.290;2023-05-07T08:13:45;15.90;99.90
14095;DHT22;18096;48.142;16.290;2023-05-07T08:16:11;15.90;99.90
14095;DHT22;18096;48.142;16.290;2023-05-07T08:18:37;15.90;99.90
14095;DHT22;18096;48.142;16.290;2023-05-07T08:21:03;15.90;99.90
14095;DHT22;18096;48.142;16.290;2023-05-07T08:23:28;15.90;99.90
14095;DHT22;18096;48.142;16.290;2023-05-07T08:25:54;15.90;99.90
14095;DHT22;18096;48.142;16.290;2023-05-07T08:28:20;15.90;99.90
14095;DHT22;18096;48.142;16.290;2023-05-07T08:30:46;16.00;99.90
14095;DHT22;18096;48.142;16.290;2023-05-07T08:33:12;16.00;99.90
14095;DHT22;18096;48.142;16.290;2023-05-07T08:35:38;16.10;99.90
14095;DHT22;18096;48.142;16.290;2023-05-07T08:38:04;16.10;99.90
14095;DHT22;18096;48.142;16.290;2023-05-07T08:40:35;16.10;99.90
14095;DHT22;18096;48.142;16.290;2023-05-07T08:43:02;16.20;99.90
14095;DHT22;18096;48.142;16.290;2023-05-07T08:45:30;16.30;99.90
14095;DHT22;18096;48.142;16.290;2023-05-07T08:47:59;16.40;99.90
14095;DHT22;18096;48.142;16.290;2023-05-07T08:50:25;16.50;99.90
14095;DHT22;18096;48.142;16.290;2023-05-07T08:52:51;16.50;99.90
14095;DHT22;18096;48.142;16.290;2023-05-07T08:55:17;16.60;99.90
14095;DHT22;18096;48.142;16.290;2023-05-07T08:57:43;16.70;99.90
14095;DHT22;18096;48.142;16.290;2023-05-07T09:00:10;16.70;99.90
14095;DHT22;18096;48.142;16.290;2023-05-07T09:02:36;16.70;99.90
14095;DHT22;18096;48.142;16.290;2023-05-07T09:05:02;16.70;99.90
14095;DHT22;18096;48.142;16.290;2023-05-07T09:07:28;16.70;99.90
14095;DHT22;18096;48.142;16.290;2023-05-07T09:09:55;16.80;99.90
14095;DHT22;18096;48.142;16.290;2023-05-07T09:12:22;16.80;99.90
14095;DHT22;18096;48.142;16.290;2023-05-07T09:14:48;16.80;99.90
14095;DHT22;18096;48.142;16.290;2023-05-07T09:17:16;16.70;99.90
14095;DHT22;18096;48.142;16.290;2023-05-07T09:19:44;16.70;99.90
14095;DHT22;18096;48.142;16.290;2023-05-07T09:22:09;16.80;99.90
14095;DHT22;18096;48.142;16.290;2023-05-07T09:24:36;16.90;99.90
14095;DHT22;18096;48.142;16.290;2023-05-07T09:27:04;17.00;99.90
14095;DHT22;18096;48.142;16.290;2023-05-07T09:29:30;17.00;99.90
14095;DHT22;18096;48.142;16.290;2023-05-07T09:32:03;17.00;99.90
14095;DHT22;18096;48.142;16.290;2023-05-07T09:34:30;17.00;99.90
14095;DHT22;18096;48.142;16.290;2023-05-07T09:37:01;17.00;99.90
14095;DHT22;18096;48.142;16.290;2023-05-07T09:39:26;17.00;99.90
14095;DHT22;18096;48.142;16.290;2023-05-07T09:42:03;17.00;99.90
14095;DHT22;18096;48.142;16.290;2023-05-07T09:44:31;17.00;99.90
14095;DHT22;18096;48.142;16.290;2023-05-07T09:46:59;17.10;99.90
14095;DHT22;18096;48.142;16.290;2023-05-07T09:49:29;17.10;99.90
14095;DHT22;18096;48.142;16.290;2023-05-07T09:52:00;17.20;99.90
14095;DHT22;18096;48.142;16.290;2023-05-07T09:54:26;17.10;99.90
14095;DHT22;18096;48.142;16.290;2023-05-07T09:56:54;17.20;99.90
14095;DHT22;18096;48.142;16.290;2023-05-07T09:59:21;17.30;99.90
14095;DHT22;18096;48.142;16.290;2023-05-07T10:01:49;17.30;99.90
14095;DHT22;18096;48.142;16.290;2023-05-07T10:04:15;17.40;99.90
14095;DHT22;18096;48.142;16.290;2023-05-07T10:06:43;17.30;99.90
14095;DHT22;18096;48.142;16.290;2023-05-07T10:09:10;17.40;99.90
14095;DHT22;18096;48.142;16.290;2023-05-07T10:11:37;17.50;99.90
14095;DHT22;18096;48.142;16.290;2023-05-07T10:14:03;17.50;99.90
14095;DHT22;18096;48.142;16.290;2023-05-07T10:16:32;17.50;99.90
14095;DHT22;18096;48.142;16.290;2023-05-07T10:18:59;17.50;99.90
14095;DHT22;18096;48.142;16.290;2023-05-07T10:21:27;17.50;99.90
14095;DHT22;18096;48.142;16.290;2023-05-07T10:24:10;17.60;99.90
14095;DHT22;18096;48.142;16.290;2023-05-07T10:26:44;17.60;99.90
14095;DHT22;18096;48.142;16.290;2023-05-07T10:29:21;17.60;99.90
14095;DHT22;18096;48.142;16.290;2023-05-07T10:34:26;17.80;99.90
14095;DHT22;18096;48.142;16.290;2023-05-07T10:36:54;17.90;99.90
14095;DHT22;18096;48.142;16.290;2023-05-07T10:39:21;18.00;99.90
14095;DHT22;18096;48.142;16.290;2023-05-07T10:41:47;18.10;99.90
14095;DHT22;18096;48.142;16.290;2023-05-07T10:44:28;18.10;99.90
14095;DHT22;18096;48.142;16.290;2023-05-07T10:47:07;18.10;99.90
14095;DHT22;18096;48.142;16.290;2023-05-07T10:52:22;18.20;99.90
14095;DHT22;18096;48.142;16.290;2023-05-07T10:57:42;18.30;99.90
14095;DHT22;18096;48.142;16.290;2023-05-07T11:05:30;18.50;99.90
14095;DHT22;18096;48.142;16.290;2023-05-07T11:07:57;18.50;99.90
14095;DHT22;18096;48.142;16.290;2023-05-07T11:10:56;18.50;99.90
14095;DHT22;18096;48.142;16.290;2023-05-07T11:16:22;18.60;99.90
14095;DHT22;18096;48.142;16.290;2023-05-07T11:18:49;18.70;99.90
14095;DHT22;18096;48.142;16.290;2023-05-07T11:21:36;18.70;99.90
14095;DHT22;18096;48.142;16.290;2023-05-07T11:24:03;18.70;99.90
14095;DHT22;18096;48.142;16.290;2023-05-07T11:26:31;18.70;99.90
14095;DHT22;18096;48.142;16.290;2023-05-07T11:29:20;18.60;99.90
14095;DHT22;18096;48.142;16.290;2023-05-07T11:31:51;18.60;99.90
14095;DHT22;18096;48.142;16.290;2023-05-07T11:34:21;18.60;99.90
14095;DHT22;18096;48.142;16.290;2023-05-07T11:36:47;18.60;99.90
14095;DHT22;18096;48.142;16.290;2023-05-07T11:39:32;18.60;99.90
14095;DHT22;18096;48.142;16.290;2023-05-07T11:42:02;18.60;99.90
14095;DHT22;18096;48.142;16.290;2023-05-07T11:44:48;18.70;99.90
14095;DHT22;18096;48.142;16.290;2023-05-07T11:47:18;18.70;99.90
14095;DHT22;18096;48.142;16.290;2023-05-07T11:49:47;18.70;99.90
14095;DHT22;18096;48.142;16.290;2023-05-07T11:52:13;18.70;99.90
14095;DHT22;18096;48.142;16.290;2023-05-07T11:54:39;18.70;99.90
14095;DHT22;18096;48.142;16.290;2023-05-07T11:57:04;18.70;99.90
14095;DHT22;18096;48.142;16.290;2023-05-07T11:59:38;18.80;99.90
14095;DHT22;18096;48.142;16.290;2023-05-07T12:02:06;18.80;99.90
14095;DHT22;18096;48.142;16.290;2023-05-07T12:04:31;18.60;99.90
14095;DHT22;18096;48.142;16.290;2023-05-07T12:06:57;18.70;99.90
14095;DHT22;18096;48.142;16.290;2023-05-07T12:09:23;18.70;99.90
14095;DHT22;18096;48.142;16.290;2023-05-07T12:11:48;18.70;99.90
14095;DHT22;18096;48.142;16.290;2023-05-07T12:14:14;18.80;99.90
14095;DHT22;18096;48.142;16.290;2023-05-07T12:16:41;18.80;99.90
14095;DHT22;18096;48.142;16.290;2023-05-07T12:19:08;18.90;99.90
14095;DHT22;18096;48.142;16.290;2023-05-07T12:21:34;18.90;99.90
14095;DHT22;18096;48.142;16.290;2023-05-07T12:24:01;19.00;99.90
14095;DHT22;18096;48.142;16.290;2023-05-07T12:26:27;19.10;99.90
14095;DHT22;18096;48.142;16.290;2023-05-07T12:28:52;19.10;99.90
14095;DHT22;18096;48.142;16.290;2023-05-07T12:31:18;19.10;99.90
14095;DHT22;18096;48.142;16.290;2023-05-07T12:33:44;19.00;99.90
14095;DHT22;18096;48.142;16.290;2023-05-07T12:36:12;19.00;99.90
14095;DHT22;18096;48.142;16.290;2023-05-07T12:38:39;19.00;99.90
14095;DHT22;18096;48.142;16.290;2023-05-07T12:41:07;19.00;99.90
14095;DHT22;18096;48.142;16.290;2023-05-07T12:43:33;19.10;99.90
14095;DHT22;18096;48.142;16.290;2023-05-07T12:46:07;19.10;99.90
14095;DHT22;18096;48.142;16.290;2023-05-07T12:48:33;19.20;99.90
14095;DHT22;18096;48.142;16.290;2023-05-07T12:51:02;19.20;99.90
14095;DHT22;18096;48.142;16.290;2023-05-07T12:53:29;19.20;99.90
14095;DHT22;18096;48.142;16.290;2023-05-07T12:55:57;19.20;99.90
14095;DHT22;18096;48.142;16.290;2023-05-07T12:58:31;19.20;99.90
14095;DHT22;18096;48.142;16.290;2023-05-07T13:00:59;19.20;99.90
14095;DHT22;18096;48.142;16.290;2023-05-07T13:03:33;19.10;99.90
14095;DHT22;18096;48.142;16.290;2023-05-07T13:06:04;19.00;99.90
14095;DHT22;18096;48.142;16.290;2023-05-07T13:08:34;19.00;99.90
14095;DHT22;18096;48.142;16.290;2023-05-07T13:11:01;19.10;99.90
14095;DHT22;18096;48.142;16.290;2023-05-07T13:13:34;19.10;99.90
14095;DHT22;18096;48.142;16.290;2023-05-07T13:16:03;19.20;99.90
14095;DHT22;18096;48.142;16.290;2023-05-07T13:18:30;19.30;99.90
14095;DHT22;18096;48.142;16.290;2023-05-07T13:20:56;19.30;99.90
14095;DHT22;18096;48.142;16.290;2023-05-07T13:23:22;19.20;99.90
14095;DHT22;18096;48.142;16.290;2023-05-07T13:25:49;19.20;99.90
14095;DHT22;18096;48.142;16.290;2023-05-07T13:28:14;19.10;99.90
14095;DHT22;18096;48.142;16.290;2023-05-07T13:30:40;19.10;99.90
14095;DHT22;18096;48.142;16.290;2023-05-07T13:33:06;19.10;99.90
14095;DHT22;18096;48.142;16.290;2023-05-07T13:35:32;19.10;99.90
14095;DHT22;18096;48.142;16.290;2023-05-07T13:37:58;19.00;99.90
14095;DHT22;18096;48.142;16.290;2023-05-07T13:40:24;19.00;99.90
14095;DHT22;18096;48.142;16.290;2023-05-07T13:42:50;19.00;99.90
14095;DHT22;18096;48.142;16.290;2023-05-07T13:45:17;19.10;99.90
14095;DHT22;18096;48.142;16.290;2023-05-07T13:47:42;19.10;99.90
14095;DHT22;18096;48.142;16.290;2023-05-07T13:50:09;19.10;99.90
14095;DHT22;18096;48.142;16.290;2023-05-07T13:52:37;19.10;99.90
14095;DHT22;18096;48.142;16.290;2023-05-07T13:55:02;19.10;99.90
14095;DHT22;18096;48.142;16.290;2023-05-07T13:57:28;19.10;99.90
14095;DHT22;18096;48.142;16.290;2023-05-07T13:59:54;19.20;99.90
14095;DHT22;18096;48.142;16.290;2023-05-07T14:02:19;19.20;99.90
14095;DHT22;18096;48.142;16.290;2023-05-07T14:04:45;19.20;99.90
14095;DHT22;18096;48.142;16.290;2023-05-07T14:07:11;19.30;99.90
14095;DHT22;18096;48.142;16.290;2023-05-07T14:09:37;19.40;99.90
14095;DHT22;18096;48.142;16.290;2023-05-07T14:12:02;19.40;99.90
14095;DHT22;18096;48.142;16.290;2023-05-07T14:14:28;19.40;99.90
14095;DHT22;18096;48.142;16.290;2023-05-07T14:16:54;19.40;99.90
14095;DHT22;18096;48.142;16.290;2023-05-07T14:19:19;19.30;99.90
14095;DHT22;18096;48.142;16.290;2023-05-07T14:21:45;19.30;99.90
14095;DHT22;18096;48.142;16.290;2023-05-07T14:24:10;19.20;99.90
14095;DHT22;18096;48.142;16.290;2023-05-07T14:26:36;19.20;99.90
14095;DHT22;18096;48.142;16.290;2023-05-07T14:29:03;19.20;99.90
14095;DHT22;18096;48.142;16.290;2023-05-07T14:31:28;19.20;99.90
14095;DHT22;18096;48.142;16.290;2023-05-07T14:33:54;19.20;99.90
14095;DHT22;18096;48.142;16.290;2023-05-07T14:36:20;19.20;99.90
14095;DHT22;18096;48.142;16.290;2023-05-07T14:38:47;19.10;99.90
14095;DHT22;18096;48.142;16.290;2023-05-07T14:41:12;19.10;99.90
14095;DHT22;18096;48.142;16.290;2023-05-07T14:43:38;19.10;99.90
14095;DHT22;18096;48.142;16.290;2023-05-07T14:46:04;19.10;99.90
14095;DHT22;18096;48.142;16.290;2023-05-07T14:48:29;19.10;99.90
14095;DHT22;18096;48.142;16.290;2023-05-07T14:50:55;19.00;99.90
14095;DHT22;18096;48.142;16.290;2023-05-07T14:53:21;19.00;99.70
14095;DHT22;18096;48.142;16.290;2023-05-07T14:55:47;19.00;99.60
14095;DHT22;18096;48.142;16.290;2023-05-07T14:58:13;19.00;99.40
14095;DHT22;18096;48.142;16.290;2023-05-07T15:00:39;19.00;99.60
14095;DHT22;18096;48.142;16.290;2023-05-07T15:03:09;19.00;99.70
14095;DHT22;18096;48.142;16.290;2023-05-07T15:05:36;19.00;99.90
14095;DHT22;18096;48.142;16.290;2023-05-07T15:08:02;19.00;99.90
14095;DHT22;18096;48.142;16.290;2023-05-07T15:10:28;18.90;99.90
14095;DHT22;18096;48.142;16.290;2023-05-07T15:12:54;18.80;99.90
14095;DHT22;18096;48.142;16.290;2023-05-07T15:15:19;18.80;99.90
14095;DHT22;18096;48.142;16.290;2023-05-07T15:17:45;18.70;99.90
14095;DHT22;18096;48.142;16.290;2023-05-07T15:20:11;18.70;99.90
14095;DHT22;18096;48.142;16.290;2023-05-07T15:22:36;18.70;99.90
14095;DHT22;18096;48.142;16.290;2023-05-07T15:25:03;18.60;99.90
14095;DHT22;18096;48.142;16.290;2023-05-07T15:27:30;18.60;99.90
14095;DHT22;18096;48.142;16.290;2023-05-07T15:29:56;18.50;99.90